Time;durP1;ratioP1;P1;durP2;ratioP2;P2;SDS_P1;SDS_P2;PMS_P1;PMS_P2;Temp;Humidity;BMP_temperature;BMP_pressure;BME280_temperature;BME280_humidity;BME280_pressure;Samples;Min_cycle;Max_cycle;Signal;HPM_P1;HPM_P2
2023/02/08 00:01:43;;;;;;;14.07;9.10;;;-3.40;99.90;;;;;;4963186;28;20216;-73
2023/02/08 00:04:08;;;;;;;18.40;9.40;;;-3.40;99.90;;;;;;4982073;28;20187;-72
2023/02/08 00:06:34;;;;;;;13.47;8.00;;;-3.40;99.90;;;;;;4982917;28;20204;-72
2023/02/08 00:09:00;;;;;;;17.37;8.93;;;-3.50;99.90;;;;;;4982841;28;20203;-72
2023/02/08 00:11:26;;;;;;;19.07;10.50;;;-3.50;99.90;;;;;;4982728;28;20242;-71
2023/02/08 00:13:51;;;;;;;25.73;9.57;;;-3.50;99.90;;;;;;4956362;28;20469;-72
2023/02/08 00:16:17;;;;;;;13.13;7.90;;;-3.60;99.90;;;;;;4983314;28;20242;-72
2023/02/08 00:18:43;;;;;;;22.17;10.13;;;-3.60;99.90;;;;;;4983029;28;20244;-72
2023/02/08 00:21:11;;;;;;;17.47;9.27;;;-3.50;99.90;;;;;;4983101;28;20463;-72
2023/02/08 00:23:36;;;;;;;18.23;9.50;;;-3.60;99.90;;;;;;4976419;28;20193;-72
2023/02/08 00:26:02;;;;;;;11.63;7.60;;;-3.60;99.90;;;;;;4975817;28;20461;-72
2023/02/08 00:28:28;;;;;;;22.93;10.00;;;-3.60;99.90;;;;;;4974033;28;20648;-72
2023/02/08 00:30:53;;;;;;;18.50;9.47;;;-3.70;99.90;;;;;;4992152;28;20247;-72
2023/02/08 00:33:19;;;;;;;19.47;9.97;;;-3.70;99.90;;;;;;4981989;28;20198;-72
2023/02/08 00:35:45;;;;;;;16.00;9.33;;;-3.80;99.90;;;;;;4967363;28;20238;-72
2023/02/08 00:38:10;;;;;;;20.23;10.43;;;-3.80;99.90;;;;;;4985650;28;20245;-72
2023/02/08 00:40:36;;;;;;;18.13;9.70;;;-3.90;99.90;;;;;;4981154;28;20207;-72
2023/02/08 00:43:02;;;;;;;15.37;8.77;;;-3.90;99.90;;;;;;4974003;28;20191;-72
2023/02/08 00:45:28;;;;;;;14.77;8.93;;;-3.90;99.90;;;;;;4977850;28;20437;-72
2023/02/08 00:47:53;;;;;;;15.00;9.20;;;-4.00;99.90;;;;;;4985825;28;20218;-72
2023/02/08 00:50:19;;;;;;;17.60;10.13;;;-4.00;99.90;;;;;;4982211;28;20213;-71
2023/02/08 00:52:44;;;;;;;17.60;8.43;;;-4.10;99.90;;;;;;4982247;28;20242;-73
2023/02/08 00:55:10;;;;;;;15.57;8.73;;;-4.10;99.90;;;;;;4975061;28;20701;-72
2023/02/08 00:57:35;;;;;;;20.57;9.87;;;-4.00;99.90;;;;;;4992710;28;20241;-72
2023/02/08 01:00:03;;;;;;;14.27;8.20;;;-4.00;99.90;;;;;;4977382;28;20196;-71
2023/02/08 01:02:29;;;;;;;16.60;9.27;;;-4.10;99.90;;;;;;4989570;28;20727;-72
2023/02/08 01:04:54;;;;;;;16.53;7.50;;;-4.10;99.90;;;;;;4981484;28;20444;-72
2023/02/08 01:07:20;;;;;;;16.05;9.68;;;-4.20;99.90;;;;;;4988921;28;20479;-72
2023/02/08 01:09:45;;;;;;;14.27;9.03;;;-4.20;99.90;;;;;;4974161;28;20217;-72
2023/02/08 01:12:11;;;;;;;15.20;8.73;;;-4.30;99.90;;;;;;4974329;28;20222;-72
2023/02/08 01:14:38;;;;;;;14.70;9.23;;;-4.30;99.90;;;;;;4992192;28;20191;-72
2023/02/08 01:17:03;;;;;;;14.43;8.13;;;-4.30;99.90;;;;;;4983303;28;20227;-72
2023/02/08 01:19:29;;;;;;;15.83;8.97;;;-4.30;99.90;;;;;;4987671;28;20936;-73
2023/02/08 01:21:55;;;;;;;12.83;7.80;;;-4.30;99.90;;;;;;4984477;28;20565;-72
2023/02/08 01:24:20;;;;;;;15.60;8.10;;;-4.30;99.90;;;;;;4989236;28;20184;-72
2023/02/08 01:26:46;;;;;;;17.13;10.23;;;-4.40;99.90;;;;;;4973755;28;20571;-72
2023/02/08 01:29:12;;;;;;;17.10;9.20;;;-4.50;99.90;;;;;;4982515;28;20585;-72
2023/02/08 01:31:39;;;;;;;14.63;9.10;;;-4.50;99.90;;;;;;4992876;28;20215;-72
2023/02/08 01:34:07;;;;;;;10.73;6.90;;;-4.60;99.90;;;;;;4976995;28;20557;-72
2023/02/08 01:36:33;;;;;;;18.10;8.10;;;-4.60;99.90;;;;;;4985354;28;20445;-72
2023/02/08 01:38:59;;;;;;;17.80;8.33;;;-4.60;99.90;;;;;;4992570;28;20426;-72
2023/02/08 01:41:27;;;;;;;14.93;9.10;;;-4.60;99.90;;;;;;4971381;28;20466;-72
2023/02/08 01:44:04;;;;;;;9.60;7.03;;;-4.60;99.90;;;;;;4979010;28;20227;-72
2023/02/08 01:46:30;;;;;;;12.60;8.07;;;-4.60;99.90;;;;;;4976527;28;20431;-73
2023/02/08 01:49:01;;;;;;;16.60;8.67;;;-4.70;99.90;;;;;;4984781;28;20426;-72
2023/02/08 01:51:31;;;;;;;11.00;7.70;;;-4.70;99.90;;;;;;4974377;28;20505;-72
2023/02/08 01:53:59;;;;;;;15.03;7.30;;;-4.70;99.90;;;;;;4979739;28;20426;-73
2023/02/08 01:56:30;;;;;;;16.10;8.30;;;-4.70;99.90;;;;;;4982647;28;21093;-73
2023/02/08 01:59:00;;;;;;;18.43;8.03;;;-4.70;99.90;;;;;;4957194;28;20435;-73
2023/02/08 03:32:10;;;;;;;12.20;7.37;;;-5.60;99.90;;;;;;5333357;22;21005;-73
2023/02/08 03:35:03;;;;;;;11.77;6.93;;;-5.50;99.90;;;;;;5000919;28;20430;-73
2023/02/08 03:37:35;;;;;;;14.13;7.80;;;-5.60;99.90;;;;;;4959962;28;20413;-73
2023/02/08 03:40:19;;;;;;;10.63;7.30;;;-5.60;99.90;;;;;;4989059;28;20410;-73
2023/02/08 03:42:47;;;;;;;15.80;8.57;;;-5.60;99.90;;;;;;4940006;28;20425;-73
2023/02/08 03:45:22;;;;;;;14.37;9.07;;;-5.60;99.90;;;;;;4957304;28;20959;-73
2023/02/08 03:47:50;;;;;;;16.87;8.20;;;-5.60;99.90;;;;;;4968026;28;20497;-72
2023/02/08 03:50:18;;;;;;;16.20;8.33;;;-5.60;99.90;;;;;;4962198;28;20486;-72
2023/02/08 03:52:46;;;;;;;13.90;8.53;;;-5.60;99.90;;;;;;4968881;28;20407;-72
2023/02/08 03:55:16;;;;;;;13.97;7.50;;;-5.60;99.90;;;;;;4975339;28;20460;-72
2023/02/08 03:57:53;;;;;;;12.70;6.80;;;-5.60;99.90;;;;;;4975905;28;20760;-74
2023/02/08 04:00:20;;;;;;;14.90;8.67;;;-5.70;99.90;;;;;;4975634;28;20402;-71
2023/02/08 04:03:04;;;;;;;12.10;8.40;;;-5.80;99.90;;;;;;4975395;28;20454;-73
2023/02/08 04:05:30;;;;;;;14.73;8.33;;;-5.70;99.90;;;;;;4957996;28;20421;-72
2023/02/08 04:07:55;;;;;;;21.63;8.10;;;-5.80;99.90;;;;;;4975557;28;20422;-75
2023/02/08 04:10:21;;;;;;;12.50;7.83;;;-5.80;99.90;;;;;;4975183;28;20248;-74
2023/02/08 04:12:47;;;;;;;18.00;8.20;;;-5.70;99.90;;;;;;4971005;28;20251;-72
2023/02/08 04:15:13;;;;;;;14.43;8.93;;;-5.80;99.90;;;;;;4955964;28;20202;-72
2023/02/08 04:17:39;;;;;;;14.53;8.50;;;-5.70;99.90;;;;;;4968058;28;20493;-72
2023/02/08 04:20:04;;;;;;;13.63;7.67;;;-5.70;99.90;;;;;;4975217;28;20416;-73
2023/02/08 04:22:30;;;;;;;16.10;7.60;;;-5.70;99.90;;;;;;4955497;28;20223;-74
2023/02/08 04:24:55;;;;;;;16.37;8.53;;;-5.80;99.90;;;;;;4955554;28;20552;-73
2023/02/08 04:27:21;;;;;;;16.63;8.20;;;-5.80;99.90;;;;;;4956131;28;20199;-73
2023/02/08 04:29:47;;;;;;;14.87;8.13;;;-5.90;99.90;;;;;;4969121;28;20245;-74
2023/02/08 04:32:12;;;;;;;17.00;9.60;;;-5.90;99.90;;;;;;4977987;28;20588;-73
2023/02/08 04:34:39;;;;;;;16.73;9.23;;;-5.90;99.90;;;;;;4973665;28;20186;-73
2023/02/08 04:37:05;;;;;;;19.50;8.33;;;-5.90;99.90;;;;;;4970869;28;20192;-73
2023/02/08 04:39:31;;;;;;;15.10;8.47;;;-5.90;99.90;;;;;;4973536;28;20421;-75
2023/02/08 04:41:57;;;;;;;12.40;7.30;;;-5.90;99.90;;;;;;4966964;28;20962;-73
2023/02/08 04:44:22;;;;;;;14.37;8.10;;;-5.90;99.90;;;;;;4974240;28;20291;-73
2023/02/08 04:46:48;;;;;;;18.20;9.60;;;-5.90;99.90;;;;;;4952898;28;20657;-72
2023/02/08 04:49:14;;;;;;;14.57;8.10;;;-6.00;99.90;;;;;;4955465;28;20205;-73
2023/02/08 04:51:39;;;;;;;15.07;8.50;;;-6.00;99.90;;;;;;4957686;28;20206;-72
2023/02/08 04:54:05;;;;;;;15.50;8.87;;;-6.00;99.90;;;;;;4974762;28;20186;-74
2023/02/08 04:56:31;;;;;;;15.40;7.63;;;-6.00;99.90;;;;;;4974576;28;20193;-74
2023/02/08 04:58:56;;;;;;;14.80;8.77;;;-6.00;99.90;;;;;;4957466;28;20219;-74
2023/02/08 05:01:22;;;;;;;13.60;8.63;;;-6.00;99.90;;;;;;4974337;28;20296;-72
2023/02/08 05:03:48;;;;;;;15.47;8.77;;;-6.00;99.90;;;;;;4974893;28;20195;-72
2023/02/08 05:06:13;;;;;;;16.83;8.70;;;-6.10;99.90;;;;;;4974732;28;20201;-73
2023/02/08 05:08:39;;;;;;;12.77;8.57;;;-6.10;99.90;;;;;;4974697;28;20271;-74
2023/02/08 05:11:05;;;;;;;18.70;9.10;;;-6.10;99.90;;;;;;4974302;28;20640;-73
2023/02/08 05:13:30;;;;;;;18.47;9.83;;;-6.20;99.90;;;;;;4964319;28;20192;-73
2023/02/08 05:15:56;;;;;;;16.00;9.20;;;-6.20;99.90;;;;;;4954947;28;20411;-73
2023/02/08 05:18:21;;;;;;;16.43;8.17;;;-6.20;99.90;;;;;;4971338;28;20196;-72
2023/02/08 05:20:58;;;;;;;11.37;7.57;;;-6.20;99.90;;;;;;4974076;28;20226;-73
2023/02/08 05:23:24;;;;;;;16.67;9.07;;;-6.10;99.90;;;;;;4974417;28;20283;-73
2023/02/08 05:25:50;;;;;;;14.20;7.60;;;-6.20;99.90;;;;;;4969569;28;20446;-74
2023/02/08 05:28:16;;;;;;;16.83;9.10;;;-6.20;99.90;;;;;;4954850;28;20440;-73
2023/02/08 05:30:41;;;;;;;19.50;8.93;;;-6.20;99.90;;;;;;4964427;28;20235;-72
2023/02/08 05:33:07;;;;;;;21.97;10.23;;;-6.20;99.90;;;;;;4958191;28;20903;-71
2023/02/08 05:35:32;;;;;;;23.30;8.47;;;-6.30;99.90;;;;;;4953875;28;20189;-72
2023/02/08 05:37:58;;;;;;;16.17;8.10;;;-6.30;99.90;;;;;;4954245;28;20200;-72
2023/02/08 05:40:23;;;;;;;13.50;7.90;;;-6.20;99.90;;;;;;4954337;28;20197;-72
2023/02/08 05:42:49;;;;;;;17.07;9.50;;;-6.30;99.90;;;;;;4954459;28;20205;-72
2023/02/08 05:45:14;;;;;;;14.07;8.43;;;-6.20;99.90;;;;;;4961968;28;20201;-73
2023/02/08 05:47:40;;;;;;;16.10;9.50;;;-6.20;99.90;;;;;;4965361;28;20200;-72
2023/02/08 05:50:06;;;;;;;20.50;8.17;;;-6.30;99.90;;;;;;4973932;28;20207;-71
2023/02/08 05:52:32;;;;;;;17.70;9.40;;;-6.20;99.90;;;;;;4973400;28;20431;-72
2023/02/08 05:54:57;;;;;;;18.50;10.07;;;-6.20;99.90;;;;;;4973473;28;20844;-73
2023/02/08 05:57:23;;;;;;;21.00;8.57;;;-6.20;99.90;;;;;;4972494;28;20275;-71
2023/02/08 05:59:48;;;;;;;21.00;9.13;;;-6.20;99.90;;;;;;4973299;28;20657;-71
2023/02/08 06:02:14;;;;;;;15.83;8.40;;;-6.20;99.90;;;;;;4973409;28;20732;-73
2023/02/08 06:04:39;;;;;;;23.00;9.70;;;-6.30;99.90;;;;;;4973050;28;20629;-72
2023/02/08 06:07:05;;;;;;;16.47;8.07;;;-6.20;99.90;;;;;;4973371;28;20195;-72
2023/02/08 06:09:31;;;;;;;17.03;8.43;;;-6.20;99.90;;;;;;4972910;28;20212;-72
2023/02/08 06:11:56;;;;;;;21.23;9.73;;;-6.30;99.90;;;;;;4973376;28;20215;-71
2023/02/08 06:14:22;;;;;;;16.67;9.33;;;-6.30;99.90;;;;;;4972997;28;20200;-72
2023/02/08 06:16:47;;;;;;;18.10;8.87;;;-6.30;99.90;;;;;;4973183;28;20192;-73
2023/02/08 06:19:13;;;;;;;16.73;9.83;;;-6.40;99.90;;;;;;4973009;28;20196;-73
2023/02/08 06:21:39;;;;;;;16.20;9.07;;;-6.30;99.90;;;;;;4972682;28;20223;-72
2023/02/08 06:24:05;;;;;;;15.67;8.90;;;-6.30;99.90;;;;;;4973236;28;20196;-72
2023/02/08 06:26:32;;;;;;;17.80;9.57;;;-6.30;99.90;;;;;;4972899;28;20185;-72
2023/02/08 06:28:59;;;;;;;16.07;9.90;;;-6.40;99.90;;;;;;4955714;28;20787;-71
2023/02/08 06:31:24;;;;;;;18.97;9.83;;;-6.40;99.90;;;;;;4956577;28;20465;-73
2023/02/08 06:33:50;;;;;;;21.10;9.60;;;-6.40;99.90;;;;;;4968985;28;20448;-71
2023/02/08 06:36:15;;;;;;;18.93;11.00;;;-6.40;99.90;;;;;;4961229;28;20184;-71
2023/02/08 06:38:41;;;;;;;18.77;9.40;;;-6.40;99.90;;;;;;4972611;28;20776;-71
2023/02/08 06:41:06;;;;;;;15.00;10.10;;;-6.40;99.90;;;;;;4968138;28;20729;-71
2023/02/08 06:43:32;;;;;;;14.87;9.00;;;-6.40;99.90;;;;;;4954075;28;20249;-70
2023/02/08 06:45:57;;;;;;;29.83;10.20;;;-6.30;99.90;;;;;;4953264;28;20245;-71
2023/02/08 06:48:23;;;;;;;19.00;9.50;;;-6.30;99.90;;;;;;4953379;28;20189;-70
2023/02/08 06:50:52;;;;;;;16.67;8.70;;;-6.30;99.90;;;;;;4953419;28;20220;-70
2023/02/08 06:53:17;;;;;;;20.20;9.47;;;-6.30;99.90;;;;;;4969790;28;20518;-71
2023/02/08 06:55:47;;;;;;;17.43;9.50;;;-6.30;99.90;;;;;;4954453;28;20411;-71
2023/02/08 06:58:13;;;;;;;21.03;11.40;;;-6.30;99.90;;;;;;4954242;28;20213;-71
2023/02/08 07:00:38;;;;;;;22.80;10.70;;;-6.20;99.90;;;;;;4955962;28;20488;-70
2023/02/08 07:03:04;;;;;;;19.63;10.47;;;-6.30;99.90;;;;;;4973774;28;20684;-71
2023/02/08 07:05:32;;;;;;;22.67;9.30;;;-6.20;99.90;;;;;;4972873;28;20246;-72
2023/02/08 07:07:57;;;;;;;26.80;9.17;;;-6.10;99.90;;;;;;4972829;28;20690;-71
2023/02/08 07:10:23;;;;;;;19.03;9.63;;;-6.10;99.90;;;;;;4972086;28;20508;-69
2023/02/08 07:12:49;;;;;;;25.10;11.07;;;-6.10;99.90;;;;;;4953293;28;20200;-70
2023/02/08 07:15:14;;;;;;;20.57;10.10;;;-6.10;99.90;;;;;;4953377;28;20182;-74
2023/02/08 07:17:40;;;;;;;20.90;10.20;;;-6.10;99.90;;;;;;4963252;28;20189;-72
2023/02/08 07:20:06;;;;;;;20.67;10.73;;;-6.00;99.90;;;;;;4972495;28;20188;-72
2023/02/08 07:22:31;;;;;;;19.13;10.33;;;-6.00;99.90;;;;;;4972285;28;20715;-71
2023/02/08 07:24:57;;;;;;;19.47;11.03;;;-5.90;99.90;;;;;;4972098;28;20432;-72
2023/02/08 07:27:22;;;;;;;28.67;11.30;;;-5.80;99.90;;;;;;4964380;28;20189;-72
2023/02/08 07:29:48;;;;;;;20.67;11.97;;;-5.80;99.90;;;;;;4971793;28;20685;-72
2023/02/08 07:32:13;;;;;;;27.73;11.50;;;-5.70;99.90;;;;;;4972309;28;20596;-72
2023/02/08 07:34:39;;;;;;;16.53;9.93;;;-5.60;99.90;;;;;;4971750;28;20184;-72
2023/02/08 07:37:05;;;;;;;18.90;10.13;;;-4.80;99.90;;;;;;4966718;28;20199;-72
2023/02/08 07:39:31;;;;;;;16.57;8.77;;;-3.20;99.90;;;;;;4952927;28;20231;-71
2023/02/08 07:41:57;;;;;;;15.17;8.33;;;-1.50;99.90;;;;;;4952806;28;20572;-72
2023/02/08 07:44:23;;;;;;;17.00;9.17;;;0.60;99.90;;;;;;4952774;28;20194;-72
2023/02/08 07:46:48;;;;;;;16.47;9.30;;;2.40;99.90;;;;;;4972501;28;20446;-71
2023/02/08 07:49:14;;;;;;;16.23;10.57;;;3.80;99.90;;;;;;4975228;28;20430;-73
2023/02/08 07:51:40;;;;;;;15.90;11.47;;;5.00;99.90;;;;;;4974345;28;20226;-73
2023/02/08 07:54:05;;;;;;;16.73;10.83;;;5.60;99.90;;;;;;4974776;28;20204;-71
2023/02/08 07:56:31;;;;;;;15.30;10.20;;;6.10;99.90;;;;;;4971900;28;20188;-71
2023/02/08 07:58:56;;;;;;;15.23;10.93;;;6.60;99.90;;;;;;4971913;28;20211;-69
2023/02/08 08:01:22;;;;;;;16.83;10.90;;;6.90;99.90;;;;;;4956286;28;20212;-69
2023/02/08 08:03:49;;;;;;;19.93;11.20;;;7.10;99.90;;;;;;4971240;28;20215;-70
2023/02/08 08:06:14;;;;;;;15.40;11.10;;;7.20;99.90;;;;;;4971795;28;20224;-70
2023/02/08 08:08:40;;;;;;;15.60;10.13;;;7.30;99.90;;;;;;4971634;28;20971;-71
2023/02/08 08:11:05;;;;;;;23.10;12.37;;;7.70;99.90;;;;;;4971525;28;20250;-71
2023/02/08 08:13:31;;;;;;;16.37;10.73;;;7.90;99.90;;;;;;4971476;28;20338;-70
2023/02/08 08:15:57;;;;;;;17.07;12.00;;;8.10;99.90;;;;;;4967568;28;20561;-71
2023/02/08 08:18:22;;;;;;;20.33;11.23;;;8.40;99.90;;;;;;4960205;28;20676;-71
2023/02/08 08:20:48;;;;;;;14.00;11.47;;;8.60;99.90;;;;;;4970768;28;20304;-70
2023/02/08 08:23:15;;;;;;;16.90;12.70;;;8.00;99.90;;;;;;4956145;28;20189;-71
2023/02/08 08:25:41;;;;;;;19.50;13.33;;;7.60;99.90;;;;;;4957251;28;20243;-72
2023/02/08 08:28:06;;;;;;;23.03;13.07;;;7.20;99.90;;;;;;4975414;28;20925;-71
2023/02/08 08:30:32;;;;;;;20.97;14.20;;;6.60;99.90;;;;;;4974830;28;20223;-71
2023/02/08 08:32:57;;;;;;;16.97;12.90;;;6.40;99.90;;;;;;4954464;28;20200;-71
2023/02/08 08:35:23;;;;;;;22.40;13.60;;;6.00;99.90;;;;;;4970777;28;20195;-71
2023/02/08 08:37:48;;;;;;;21.13;12.90;;;5.50;99.90;;;;;;4955986;28;20190;-70
2023/02/08 08:40:14;;;;;;;18.63;12.10;;;4.80;99.90;;;;;;4955674;28;20223;-70
2023/02/08 08:42:39;;;;;;;21.10;13.10;;;4.40;99.90;;;;;;4964941;28;20312;-70
2023/02/08 08:45:06;;;;;;;20.03;12.80;;;4.00;99.90;;;;;;4966995;28;20188;-70
2023/02/08 08:47:32;;;;;;;21.23;12.83;;;3.80;99.90;;;;;;4966124;28;20207;-70
2023/02/08 08:49:58;;;;;;;22.90;12.70;;;3.30;99.90;;;;;;4955325;28;20961;-71
2023/02/08 08:52:23;;;;;;;28.60;13.23;;;3.10;99.90;;;;;;4955462;28;20246;-70
2023/02/08 08:54:49;;;;;;;23.47;12.03;;;3.00;99.90;;;;;;4973789;28;20690;-71
2023/02/08 08:57:16;;;;;;;19.23;10.00;;;2.80;99.90;;;;;;4974819;28;20198;-71
2023/02/08 08:59:41;;;;;;;18.67;11.47;;;2.70;99.90;;;;;;4965085;28;20189;-71
2023/02/08 09:02:13;;;;;;;19.77;11.90;;;2.30;99.90;;;;;;4960299;28;20456;-72
2023/02/08 09:04:41;;;;;;;20.73;11.70;;;2.20;99.90;;;;;;4973867;28;20182;-71
2023/02/08 09:07:08;;;;;;;20.53;11.37;;;2.40;99.90;;;;;;4974422;28;20432;-71
2023/02/08 09:09:34;;;;;;;20.60;10.90;;;2.50;99.90;;;;;;4957769;28;20463;-71
2023/02/08 09:12:00;;;;;;;19.10;11.50;;;2.50;99.90;;;;;;4955097;28;20458;-72
2023/02/08 09:14:25;;;;;;;24.77;13.57;;;2.60;99.90;;;;;;4955304;28;20848;-72
2023/02/08 09:16:51;;;;;;;19.10;11.40;;;2.70;99.90;;;;;;4956317;28;21040;-72
2023/02/08 09:19:17;;;;;;;17.80;11.37;;;2.80;99.90;;;;;;4974530;28;20221;-72
2023/02/08 09:21:43;;;;;;;25.67;10.83;;;3.10;99.90;;;;;;4973823;28;20211;-72
2023/02/08 09:24:09;;;;;;;18.33;10.47;;;3.40;99.90;;;;;;4961192;28;20191;-72
2023/02/08 09:26:34;;;;;;;19.23;10.97;;;3.60;99.90;;;;;;4954503;28;20423;-72
2023/02/08 09:29:00;;;;;;;21.53;11.70;;;3.80;99.90;;;;;;4954652;28;20254;-72
2023/02/08 09:31:29;;;;;;;17.30;10.57;;;3.90;99.90;;;;;;4953146;28;20294;-72
2023/02/08 09:33:58;;;;;;;19.47;11.93;;;4.20;99.90;;;;;;4972797;28;20435;-72
2023/02/08 09:36:26;;;;;;;26.50;13.27;;;4.20;99.90;;;;;;4973465;28;20437;-71
2023/02/08 09:38:59;;;;;;;21.03;11.37;;;4.40;99.90;;;;;;4973571;28;20445;-72
2023/02/08 09:41:52;;;;;;;16.90;11.17;;;4.70;99.90;;;;;;4973696;28;20447;-71
2023/02/08 09:44:42;;;;;;;19.37;13.03;;;5.20;99.90;;;;;;4973663;28;20432;-72
2023/02/08 09:47:24;;;;;;;23.13;12.10;;;5.30;99.90;;;;;;4973830;28;20423;-72
2023/02/08 09:49:57;;;;;;;23.00;12.27;;;5.60;99.90;;;;;;4963125;28;20472;-72
2023/02/08 09:52:30;;;;;;;19.00;12.50;;;5.60;99.90;;;;;;4954738;28;20451;-73
2023/02/08 09:54:59;;;;;;;24.67;11.80;;;5.80;99.90;;;;;;4954352;28;20842;-72
2023/02/08 09:57:32;;;;;;;20.20;11.20;;;6.00;99.90;;;;;;4954251;28;21003;-71
2023/02/08 10:00:02;;;;;;;17.50;11.03;;;6.00;99.90;;;;;;4965553;28;20424;-71
2023/02/08 10:02:31;;;;;;;18.73;12.13;;;5.90;99.90;;;;;;4973399;28;20461;-73
2023/02/08 10:05:09;;;;;;;23.30;13.63;;;6.10;99.90;;;;;;4969881;28;21013;-72
2023/02/08 10:07:35;;;;;;;22.83;13.00;;;6.10;99.90;;;;;;4970134;28;20477;-72
2023/02/08 10:10:11;;;;;;;20.93;12.90;;;6.30;99.90;;;;;;4973033;28;20503;-72
2023/02/08 10:12:59;;;;;;;27.60;12.83;;;6.40;99.90;;;;;;4973071;28;20460;-72
2023/02/08 10:15:32;;;;;;;17.53;12.03;;;6.40;99.90;;;;;;4973106;28;20480;-72
2023/02/08 10:18:23;;;;;;;20.50;11.87;;;6.50;99.90;;;;;;4973130;28;20563;-71
2023/02/08 10:21:12;;;;;;;20.53;12.27;;;6.40;99.90;;;;;;4972748;28;20464;-72
2023/02/08 10:23:44;;;;;;;21.17;12.00;;;6.60;99.90;;;;;;4973065;28;20439;-71
2023/02/08 10:26:25;;;;;;;21.47;12.17;;;6.40;99.90;;;;;;4973055;28;20468;-71
2023/02/08 10:29:15;;;;;;;20.87;12.27;;;6.50;98.80;;;;;;4973249;28;20432;-71
2023/02/08 10:31:55;;;;;;;18.87;11.80;;;6.50;98.60;;;;;;4972508;28;20473;-73
2023/02/08 10:34:52;;;;;;;23.50;11.43;;;6.20;99.10;;;;;;4973013;28;20801;-72
2023/02/08 10:37:20;;;;;;;18.63;11.33;;;6.20;99.90;;;;;;4966963;28;20433;-70
2023/02/08 10:39:47;;;;;;;18.23;11.70;;;6.10;98.00;;;;;;4966915;28;20425;-72
2023/02/08 10:42:16;;;;;;;17.43;11.37;;;6.00;98.20;;;;;;4951718;28;20881;-72
2023/02/08 10:44:57;;;;;;;19.50;11.30;;;6.30;99.70;;;;;;4968492;28;21118;-72
2023/02/08 10:47:35;;;;;;;19.40;11.70;;;6.40;97.30;;;;;;4971017;28;20527;-73
2023/02/08 10:50:19;;;;;;;18.73;10.43;;;6.40;97.40;;;;;;4970988;28;20619;-72
2023/02/08 10:52:46;;;;;;;20.53;11.60;;;6.10;97.60;;;;;;4970704;28;20776;-71
2023/02/08 10:55:14;;;;;;;26.00;11.93;;;6.20;98.20;;;;;;4954803;28;20453;-72
2023/02/08 10:57:41;;;;;;;23.27;10.57;;;6.40;99.70;;;;;;4956002;28;20440;-72
2023/02/08 11:00:14;;;;;;;19.40;11.40;;;6.90;98.90;;;;;;4953411;28;20749;-71
2023/02/08 11:02:41;;;;;;;19.10;11.03;;;6.70;97.80;;;;;;4969568;28;20451;-73
2023/02/08 11:05:08;;;;;;;17.30;11.80;;;6.80;98.10;;;;;;4972405;28;20448;-73
2023/02/08 11:07:35;;;;;;;16.67;11.50;;;7.10;98.30;;;;;;4972662;28;20499;-74
2023/02/08 11:10:18;;;;;;;22.57;12.47;;;7.20;98.80;;;;;;4972144;28;20550;-73
2023/02/08 11:12:58;;;;;;;19.60;11.50;;;7.40;98.30;;;;;;4964980;28;20440;-73
2023/02/08 11:15:37;;;;;;;17.70;9.87;;;7.50;97.00;;;;;;4954105;28;21011;-73
2023/02/08 11:18:04;;;;;;;22.37;12.63;;;7.30;95.70;;;;;;4964556;28;20426;-73
2023/02/08 11:20:37;;;;;;;19.87;12.53;;;7.30;96.30;;;;;;4972373;28;20441;-73
2023/02/08 11:23:15;;;;;;;17.93;11.60;;;7.70;97.40;;;;;;4964411;28;20536;-72
2023/02/08 11:25:41;;;;;;;17.73;11.93;;;7.80;95.40;;;;;;4971999;28;20508;-73
2023/02/08 11:28:22;;;;;;;19.73;12.20;;;7.60;94.70;;;;;;4976219;28;20922;-72
2023/02/08 11:30:59;;;;;;;18.03;11.10;;;7.30;95.00;;;;;;4957964;28;20248;-72
2023/02/08 11:33:26;;;;;;;18.80;12.27;;;7.30;96.40;;;;;;4972525;28;20424;-72
2023/02/08 11:36:12;;;;;;;17.57;10.30;;;7.20;95.90;;;;;;4971805;28;20799;-74
2023/02/08 11:38:41;;;;;;;21.17;10.50;;;7.10;96.00;;;;;;4971891;28;20803;-73
2023/02/08 11:41:17;;;;;;;17.00;11.30;;;7.20;95.70;;;;;;4960528;28;20545;-73
2023/02/08 11:43:54;;;;;;;18.37;10.60;;;7.20;96.70;;;;;;4969266;28;20485;-72
2023/02/08 11:46:26;;;;;;;17.37;9.93;;;7.10;96.70;;;;;;4972210;28;20441;-73
2023/02/08 11:48:52;;;;;;;20.30;10.73;;;7.30;96.10;;;;;;4971998;28;20433;-72
2023/02/08 11:51:34;;;;;;;17.17;9.17;;;7.50;97.20;;;;;;4971989;28;21179;-73
2023/02/08 11:54:01;;;;;;;19.57;9.87;;;7.70;96.20;;;;;;4961182;28;20470;-72
2023/02/08 11:56:32;;;;;;;14.50;10.90;;;7.60;95.10;;;;;;4970444;28;20472;-73
2023/02/08 11:59:13;;;;;;;17.67;10.07;;;7.50;95.30;;;;;;4975676;28;20486;-74
2023/02/08 12:01:42;;;;;;;14.17;9.37;;;7.60;95.40;;;;;;4959998;28;20441;-74
2023/02/08 12:04:10;;;;;;;15.13;8.63;;;7.20;93.40;;;;;;4975898;28;20470;-74
2023/02/08 12:07:13;;;;;;;11.30;8.60;;;6.80;94.10;;;;;;4975600;28;20435;-73
2023/02/08 12:10:06;;;;;;;17.20;7.50;;;6.50;95.10;;;;;;4975703;28;20472;-72
2023/02/08 12:13:22;;;;;;;14.80;9.47;;;6.30;94.40;;;;;;4975588;28;20965;-73
2023/02/08 12:16:36;;;;;;;9.70;7.07;;;6.10;95.60;;;;;;4922126;28;20436;-71
2023/02/08 12:19:07;;;;;;;14.33;9.63;;;6.10;96.00;;;;;;4975270;28;20482;-72
2023/02/08 12:21:44;;;;;;;11.73;6.93;;;6.20;95.90;;;;;;4975316;28;20447;-72
2023/02/08 12:24:31;;;;;;;10.57;6.63;;;6.20;95.50;;;;;;4975321;28;20431;-72
2023/02/08 12:27:16;;;;;;;18.60;8.97;;;6.30;96.10;;;;;;4974813;28;20938;-72
2023/02/08 12:30:07;;;;;;;15.73;8.70;;;6.10;95.80;;;;;;4975083;28;20842;-70
2023/02/08 12:32:50;;;;;;;21.20;8.10;;;6.00;95.80;;;;;;4970571;28;20461;-73
2023/02/08 12:35:55;;;;;;;22.20;8.47;;;6.00;95.70;;;;;;4974901;28;20428;-69
2023/02/08 12:41:42;;;;;;;14.70;7.47;;;5.70;95.70;;;;;;4956054;28;20447;-73
2023/02/08 12:44:25;;;;;;;15.90;8.30;;;5.50;95.50;;;;;;4971491;28;20946;-72
2023/02/08 12:47:26;;;;;;;11.63;6.37;;;5.50;96.20;;;;;;4972301;28;20429;-73
2023/02/08 12:50:15;;;;;;;12.67;5.33;;;5.60;97.10;;;;;;4975017;28;20460;-73
2023/02/08 12:52:49;;;;;;;11.23;5.70;;;5.60;95.80;;;;;;4974893;28;20864;-72
2023/02/08 12:55:28;;;;;;;11.03;6.37;;;5.60;96.00;;;;;;4967511;28;20419;-74
2023/02/08 12:58:14;;;;;;;7.03;5.30;;;5.50;96.50;;;;;;4965526;28;20427;-72
2023/02/08 13:00:41;;;;;;;12.90;6.53;;;5.50;96.00;;;;;;4953727;28;20852;-73
2023/02/08 13:03:52;;;;;;;10.10;6.20;;;5.40;96.70;;;;;;4974144;28;20851;-73
2023/02/08 13:06:24;;;;;;;9.20;5.23;;;5.40;97.40;;;;;;4926624;29;20437;-73
2023/02/08 13:08:56;;;;;;;7.90;5.47;;;5.60;97.80;;;;;;4941628;28;20436;-72
2023/02/08 13:11:38;;;;;;;12.03;6.90;;;5.60;98.70;;;;;;4948176;28;21025;-73
2023/02/08 13:14:23;;;;;;;8.37;5.97;;;5.70;97.20;;;;;;4973481;28;20444;-72
2023/02/08 13:16:53;;;;;;;9.17;5.90;;;5.50;96.60;;;;;;4974134;28;20418;-72
2023/02/08 13:19:40;;;;;;;8.23;5.70;;;5.40;96.10;;;;;;4974221;28;21003;-73
2023/02/08 13:22:06;;;;;;;8.13;5.60;;;5.40;96.90;;;;;;4972513;28;20541;-73
2023/02/08 13:24:41;;;;;;;10.13;5.20;;;5.50;97.10;;;;;;4961550;28;20436;-74
2023/02/08 13:27:14;;;;;;;9.70;5.67;;;5.50;97.00;;;;;;4954950;28;20441;-73
2023/02/08 13:29:40;;;;;;;8.80;4.83;;;5.50;97.20;;;;;;4970233;28;20479;-73
2023/02/08 13:32:21;;;;;;;10.47;5.80;;;5.50;97.30;;;;;;4973507;28;20467;-70
2023/02/08 13:34:55;;;;;;;6.60;5.17;;;5.40;97.30;;;;;;4965892;28;20603;-72
2023/02/08 13:37:32;;;;;;;7.80;5.73;;;5.40;97.40;;;;;;4973898;28;20429;-72
2023/02/08 13:40:03;;;;;;;11.43;5.70;;;5.40;98.10;;;;;;4955966;28;20468;-73
2023/02/08 13:42:32;;;;;;;7.57;4.80;;;5.40;98.10;;;;;;4968400;28;20570;-72
2023/02/08 13:44:58;;;;;;;7.80;4.23;;;5.20;97.30;;;;;;4973740;28;20443;-72
2023/02/08 13:47:30;;;;;;;6.43;4.90;;;5.20;97.50;;;;;;4973896;28;20867;-72
2023/02/08 13:49:59;;;;;;;7.17;4.57;;;5.20;98.30;;;;;;4956581;28;20473;-73
2023/02/08 13:52:36;;;;;;;11.30;6.10;;;5.30;98.00;;;;;;4954708;28;20445;-73
2023/02/08 13:55:38;;;;;;;8.30;5.27;;;5.40;98.00;;;;;;4954321;28;20432;-74
2023/02/08 13:58:34;;;;;;;7.70;5.03;;;5.40;97.30;;;;;;4972500;28;20473;-73
2023/02/08 14:01:23;;;;;;;9.33;5.90;;;5.40;98.70;;;;;;4973212;28;20452;-73
2023/02/08 14:04:11;;;;;;;8.80;5.73;;;5.40;98.60;;;;;;4973320;28;20433;-72
2023/02/08 14:07:14;;;;;;;7.90;5.70;;;5.40;98.70;;;;;;4973348;28;20482;-73
2023/02/08 14:09:47;;;;;;;9.13;5.80;;;5.40;98.50;;;;;;4960289;28;20460;-73
2023/02/08 14:12:26;;;;;;;10.47;6.20;;;5.30;99.00;;;;;;4965438;28;20437;-74
2023/02/08 14:15:32;;;;;;;8.20;6.03;;;5.20;98.90;;;;;;4973199;28;20431;-71
2023/02/08 14:18:00;;;;;;;8.37;4.67;;;5.30;99.90;;;;;;4912662;29;20441;-72
2023/02/08 14:20:58;;;;;;;13.47;8.23;;;5.30;99.40;;;;;;4963571;28;20432;-73
2023/02/08 14:23:25;;;;;;;7.43;5.53;;;5.20;99.10;;;;;;4954153;28;20448;-73
2023/02/08 14:25:54;;;;;;;11.17;5.70;;;5.10;99.10;;;;;;4953527;28;20495;-71
2023/02/08 14:28:24;;;;;;;7.33;5.20;;;5.10;99.50;;;;;;4954226;28;20447;-72
2023/02/08 14:30:53;;;;;;;10.60;5.53;;;5.10;99.90;;;;;;4961862;28;20815;-71